sensor_id;sensor_type;location;lat;lon;timestamp;P1;durP1;ratioP1;P2;durP2;ratioP2
66371;SDS011;53168;51.146;17.120;2024-02-26T00:19:21;42.89;;;42.29;;
66371;SDS011;53168;51.146;17.120;2024-02-26T00:21:56;43.71;;;43.13;;
66371;SDS011;53168;51.146;17.120;2024-02-26T00:24:32;44.09;;;43.44;;
66371;SDS011;53168;51.146;17.120;2024-02-26T00:27:07;44.87;;;44.34;;
66371;SDS011;53168;51.146;17.120;2024-02-26T00:29:44;45.66;;;45.02;;
66371;SDS011;53168;51.146;17.120;2024-02-26T00:32:19;43.92;;;43.51;;
66371;SDS011;53168;51.146;17.120;2024-02-26T00:34:55;44.05;;;43.49;;
66371;SDS011;53168;51.146;17.120;2024-02-26T00:37:30;42.78;;;42.17;;
66371;SDS011;53168;51.146;17.120;2024-02-26T00:40:05;42.65;;;42.20;;
66371;SDS011;53168;51.146;17.120;2024-02-26T00:42:41;43.00;;;42.80;;
66371;SDS011;53168;51.146;17.120;2024-02-26T00:45:17;45.48;;;44.79;;
66371;SDS011;53168;51.146;17.120;2024-02-26T00:59:30;36.53;;;34.98;;
66371;SDS011;53168;51.146;17.120;2024-02-26T01:02:04;34.74;;;34.49;;
66371;SDS011;53168;51.146;17.120;2024-02-26T01:04:39;35.28;;;35.01;;
66371;SDS011;53168;51.146;17.120;2024-02-26T01:07:14;34.37;;;34.21;;
66371;SDS011;53168;51.146;17.120;2024-02-26T01:09:51;34.51;;;34.15;;
66371;SDS011;53168;51.146;17.120;2024-02-26T01:12:25;34.12;;;33.91;;
66371;SDS011;53168;51.146;17.120;2024-02-26T01:15:02;35.01;;;34.50;;
66371;SDS011;53168;51.146;17.120;2024-02-26T01:17:39;33.03;;;32.86;;
66371;SDS011;53168;51.146;17.120;2024-02-26T01:20:14;32.58;;;32.16;;
66371;SDS011;53168;51.146;17.120;2024-02-26T01:22:50;34.87;;;34.58;;
66371;SDS011;53168;51.146;17.120;2024-02-26T01:25:25;36.39;;;36.26;;
66371;SDS011;53168;51.146;17.120;2024-02-26T01:28:01;33.80;;;33.51;;
66371;SDS011;53168;51.146;17.120;2024-02-26T01:30:37;33.48;;;33.13;;
66371;SDS011;53168;51.146;17.120;2024-02-26T01:33:11;33.12;;;32.71;;
66371;SDS011;53168;51.146;17.120;2024-02-26T01:35:47;32.69;;;32.49;;
66371;SDS011;53168;51.146;17.120;2024-02-26T01:38:23;32.90;;;32.72;;
66371;SDS011;53168;51.146;17.120;2024-02-26T01:40:59;34.15;;;33.69;;
66371;SDS011;53168;51.146;17.120;2024-02-26T01:43:34;33.69;;;33.28;;
66371;SDS011;53168;51.146;17.120;2024-02-26T01:46:09;34.74;;;34.41;;
66371;SDS011;53168;51.146;17.120;2024-02-26T01:48:51;36.49;;;35.95;;
66371;SDS011;53168;51.146;17.120;2024-02-26T01:51:26;35.80;;;35.39;;
66371;SDS011;53168;51.146;17.120;2024-02-26T01:54:05;36.21;;;35.86;;
66371;SDS011;53168;51.146;17.120;2024-02-26T01:56:43;36.16;;;35.94;;
66371;SDS011;53168;51.146;17.120;2024-02-26T01:59:18;34.79;;;34.52;;
66371;SDS011;53168;51.146;17.120;2024-02-26T02:01:55;35.88;;;35.70;;
66371;SDS011;53168;51.146;17.120;2024-02-26T02:04:35;36.37;;;35.90;;
66371;SDS011;53168;51.146;17.120;2024-02-26T02:07:12;35.68;;;35.27;;
66371;SDS011;53168;51.146;17.120;2024-02-26T02:09:47;35.14;;;34.79;;
66371;SDS011;53168;51.146;17.120;2024-02-26T02:12:24;33.40;;;33.11;;
66371;SDS011;53168;51.146;17.120;2024-02-26T02:15:03;33.52;;;33.18;;
66371;SDS011;53168;51.146;17.120;2024-02-26T02:17:39;35.09;;;34.89;;
66371;SDS011;53168;51.146;17.120;2024-02-26T02:20:38;33.60;;;32.86;;
66371;SDS011;53168;51.146;17.120;2024-02-26T02:23:13;32.54;;;32.32;;
66371;SDS011;53168;51.146;17.120;2024-02-26T02:25:48;31.02;;;30.80;;
66371;SDS011;53168;51.146;17.120;2024-02-26T02:28:26;30.69;;;30.53;;
66371;SDS011;53168;51.146;17.120;2024-02-26T02:31:03;30.25;;;29.89;;
66371;SDS011;53168;51.146;17.120;2024-02-26T02:33:39;30.31;;;30.07;;
66371;SDS011;53168;51.146;17.120;2024-02-26T02:36:14;30.61;;;30.47;;
66371;SDS011;53168;51.146;17.120;2024-02-26T02:38:52;31.45;;;31.28;;
66371;SDS011;53168;51.146;17.120;2024-02-26T02:41:28;32.41;;;32.24;;
66371;SDS011;53168;51.146;17.120;2024-02-26T02:44:03;32.88;;;32.72;;
66371;SDS011;53168;51.146;17.120;2024-02-26T02:46:38;33.25;;;33.02;;
66371;SDS011;53168;51.146;17.120;2024-02-26T02:49:13;32.00;;;31.93;;
66371;SDS011;53168;51.146;17.120;2024-02-26T02:51:48;32.85;;;32.77;;
66371;SDS011;53168;51.146;17.120;2024-02-26T02:54:25;32.34;;;32.21;;
66371;SDS011;53168;51.146;17.120;2024-02-26T02:57:01;32.67;;;32.55;;
66371;SDS011;53168;51.146;17.120;2024-02-26T02:59:36;32.67;;;32.57;;
66371;SDS011;53168;51.146;17.120;2024-02-26T03:02:12;32.34;;;32.09;;
66371;SDS011;53168;51.146;17.120;2024-02-26T03:04:47;31.71;;;31.50;;
66371;SDS011;53168;51.146;17.120;2024-02-26T03:07:23;31.81;;;31.76;;
66371;SDS011;53168;51.146;17.120;2024-02-26T03:09:59;32.27;;;32.23;;
66371;SDS011;53168;51.146;17.120;2024-02-26T03:12:34;31.83;;;31.81;;
66371;SDS011;53168;51.146;17.120;2024-02-26T03:15:10;31.89;;;31.59;;
66371;SDS011;53168;51.146;17.120;2024-02-26T03:17:47;30.36;;;30.04;;
66371;SDS011;53168;51.146;17.120;2024-02-26T03:20:23;30.02;;;29.92;;
66371;SDS011;53168;51.146;17.120;2024-02-26T03:23:01;28.89;;;28.83;;
66371;SDS011;53168;51.146;17.120;2024-02-26T03:25:36;28.59;;;28.37;;
66371;SDS011;53168;51.146;17.120;2024-02-26T03:28:12;28.23;;;28.05;;
66371;SDS011;53168;51.146;17.120;2024-02-26T03:30:47;28.34;;;27.80;;
66371;SDS011;53168;51.146;17.120;2024-02-26T03:33:22;27.32;;;27.21;;
66371;SDS011;53168;51.146;17.120;2024-02-26T03:36:00;27.53;;;27.29;;
66371;SDS011;53168;51.146;17.120;2024-02-26T03:38:38;26.67;;;26.61;;
66371;SDS011;53168;51.146;17.120;2024-02-26T03:41:13;25.82;;;25.70;;
66371;SDS011;53168;51.146;17.120;2024-02-26T03:43:48;26.14;;;25.80;;
66371;SDS011;53168;51.146;17.120;2024-02-26T03:46:23;25.45;;;25.23;;
66371;SDS011;53168;51.146;17.120;2024-02-26T03:49:00;25.13;;;24.83;;
66371;SDS011;53168;51.146;17.120;2024-02-26T03:51:34;24.61;;;24.40;;
66371;SDS011;53168;51.146;17.120;2024-02-26T03:54:10;24.46;;;24.21;;
66371;SDS011;53168;51.146;17.120;2024-02-26T03:56:45;25.57;;;25.31;;
66371;SDS011;53168;51.146;17.120;2024-02-26T03:59:20;24.45;;;24.31;;
66371;SDS011;53168;51.146;17.120;2024-02-26T04:01:56;25.01;;;24.85;;
66371;SDS011;53168;51.146;17.120;2024-02-26T04:04:37;24.63;;;24.49;;
66371;SDS011;53168;51.146;17.120;2024-02-26T04:07:12;25.33;;;25.02;;
66371;SDS011;53168;51.146;17.120;2024-02-26T04:09:47;25.44;;;25.03;;
66371;SDS011;53168;51.146;17.120;2024-02-26T04:12:22;25.07;;;24.85;;
66371;SDS011;53168;51.146;17.120;2024-02-26T04:14:57;26.01;;;25.63;;
66371;SDS011;53168;51.146;17.120;2024-02-26T04:17:33;25.26;;;24.93;;
66371;SDS011;53168;51.146;17.120;2024-02-26T04:22:59;25.74;;;25.50;;
66371;SDS011;53168;51.146;17.120;2024-02-26T04:25:31;25.74;;;25.42;;
66371;SDS011;53168;51.146;17.120;2024-02-26T04:28:02;25.80;;;25.44;;
66371;SDS011;53168;51.146;17.120;2024-02-26T04:30:34;25.17;;;24.81;;
66371;SDS011;53168;51.146;17.120;2024-02-26T04:33:06;24.55;;;24.32;;
66371;SDS011;53168;51.146;17.120;2024-02-26T04:35:37;25.24;;;25.02;;
66371;SDS011;53168;51.146;17.120;2024-02-26T04:38:08;25.10;;;24.92;;
66371;SDS011;53168;51.146;17.120;2024-02-26T04:40:39;25.38;;;25.05;;
66371;SDS011;53168;51.146;17.120;2024-02-26T04:43:11;26.63;;;26.05;;
66371;SDS011;53168;51.146;17.120;2024-02-26T04:45:42;26.77;;;26.32;;
66371;SDS011;53168;51.146;17.120;2024-02-26T04:48:13;26.87;;;26.68;;
66371;SDS011;53168;51.146;17.120;2024-02-26T04:50:44;26.78;;;26.58;;
66371;SDS011;53168;51.146;17.120;2024-02-26T04:53:15;26.30;;;26.05;;
66371;SDS011;53168;51.146;17.120;2024-02-26T04:55:46;26.11;;;25.74;;
66371;SDS011;53168;51.146;17.120;2024-02-26T04:58:17;26.55;;;26.07;;
66371;SDS011;53168;51.146;17.120;2024-02-26T05:00:48;26.20;;;25.77;;
66371;SDS011;53168;51.146;17.120;2024-02-26T05:03:19;26.33;;;25.95;;
66371;SDS011;53168;51.146;17.120;2024-02-26T05:05:50;25.97;;;25.56;;
66371;SDS011;53168;51.146;17.120;2024-02-26T05:08:21;25.28;;;24.79;;
66371;SDS011;53168;51.146;17.120;2024-02-26T05:10:52;25.58;;;25.25;;
66371;SDS011;53168;51.146;17.120;2024-02-26T05:13:23;26.02;;;25.58;;
66371;SDS011;53168;51.146;17.120;2024-02-26T05:15:54;25.83;;;25.36;;
66371;SDS011;53168;51.146;17.120;2024-02-26T05:18:25;25.18;;;24.73;;
66371;SDS011;53168;51.146;17.120;2024-02-26T05:20:57;25.82;;;25.36;;
66371;SDS011;53168;51.146;17.120;2024-02-26T05:23:30;26.27;;;25.61;;
66371;SDS011;53168;51.146;17.120;2024-02-26T05:26:02;26.15;;;25.50;;
66371;SDS011;53168;51.146;17.120;2024-02-26T05:28:35;26.17;;;25.73;;
66371;SDS011;53168;51.146;17.120;2024-02-26T05:31:09;26.46;;;25.97;;
66371;SDS011;53168;51.146;17.120;2024-02-26T05:33:44;26.72;;;26.18;;
66371;SDS011;53168;51.146;17.120;2024-02-26T05:36:19;25.23;;;24.80;;
66371;SDS011;53168;51.146;17.120;2024-02-26T05:38:52;25.78;;;25.15;;
66371;SDS011;53168;51.146;17.120;2024-02-26T05:41:24;26.54;;;26.03;;
66371;SDS011;53168;51.146;17.120;2024-02-26T05:43:55;25.53;;;25.11;;
66371;SDS011;53168;51.146;17.120;2024-02-26T05:46:26;25.50;;;25.17;;
66371;SDS011;53168;51.146;17.120;2024-02-26T05:48:57;26.71;;;26.11;;
66371;SDS011;53168;51.146;17.120;2024-02-26T05:51:32;26.32;;;25.79;;
66371;SDS011;53168;51.146;17.120;2024-02-26T05:54:08;27.05;;;26.37;;
66371;SDS011;53168;51.146;17.120;2024-02-26T05:56:42;26.63;;;26.06;;
66371;SDS011;53168;51.146;17.120;2024-02-26T05:59:32;27.12;;;26.40;;
66371;SDS011;53168;51.146;17.120;2024-02-26T06:02:05;27.60;;;26.96;;
66371;SDS011;53168;51.146;17.120;2024-02-26T06:04:39;28.04;;;27.44;;
66371;SDS011;53168;51.146;17.120;2024-02-26T06:07:10;27.41;;;26.89;;
66371;SDS011;53168;51.146;17.120;2024-02-26T06:09:41;26.99;;;26.38;;
66371;SDS011;53168;51.146;17.120;2024-02-26T06:15:11;28.59;;;27.98;;
66371;SDS011;53168;51.146;17.120;2024-02-26T06:17:42;28.79;;;27.96;;
66371;SDS011;53168;51.146;17.120;2024-02-26T06:20:17;27.69;;;27.11;;
66371;SDS011;53168;51.146;17.120;2024-02-26T06:23:16;30.26;;;29.24;;
66371;SDS011;53168;51.146;17.120;2024-02-26T06:26:06;28.78;;;28.18;;
66371;SDS011;53168;51.146;17.120;2024-02-26T06:28:42;28.54;;;27.96;;
66371;SDS011;53168;51.146;17.120;2024-02-26T06:31:14;29.26;;;28.63;;
66371;SDS011;53168;51.146;17.120;2024-02-26T06:33:46;29.32;;;28.62;;
66371;SDS011;53168;51.146;17.120;2024-02-26T06:36:18;28.99;;;28.28;;
66371;SDS011;53168;51.146;17.120;2024-02-26T06:38:50;29.08;;;28.22;;
66371;SDS011;53168;51.146;17.120;2024-02-26T06:41:23;29.81;;;28.77;;
66371;SDS011;53168;51.146;17.120;2024-02-26T06:43:56;29.63;;;28.61;;
66371;SDS011;53168;51.146;17.120;2024-02-26T06:46:27;30.00;;;28.76;;
66371;SDS011;53168;51.146;17.120;2024-02-26T06:48:58;29.24;;;28.28;;
66371;SDS011;53168;51.146;17.120;2024-02-26T06:51:30;30.17;;;29.59;;
66371;SDS011;53168;51.146;17.120;2024-02-26T06:54:01;29.20;;;28.56;;
66371;SDS011;53168;51.146;17.120;2024-02-26T06:56:33;29.38;;;28.68;;
66371;SDS011;53168;51.146;17.120;2024-02-26T06:59:06;30.78;;;29.75;;
66371;SDS011;53168;51.146;17.120;2024-02-26T07:01:39;31.02;;;29.86;;
66371;SDS011;53168;51.146;17.120;2024-02-26T07:04:11;31.47;;;30.10;;
66371;SDS011;53168;51.146;17.120;2024-02-26T07:06:42;31.18;;;30.31;;
66371;SDS011;53168;51.146;17.120;2024-02-26T07:09:14;30.47;;;29.48;;
66371;SDS011;53168;51.146;17.120;2024-02-26T07:11:46;28.24;;;27.75;;
66371;SDS011;53168;51.146;17.120;2024-02-26T07:14:17;31.16;;;29.91;;
66371;SDS011;53168;51.146;17.120;2024-02-26T07:16:48;30.33;;;29.52;;
66371;SDS011;53168;51.146;17.120;2024-02-26T07:19:20;28.91;;;28.19;;
66371;SDS011;53168;51.146;17.120;2024-02-26T07:21:52;28.65;;;27.84;;
66371;SDS011;53168;51.146;17.120;2024-02-26T07:24:25;28.37;;;27.43;;
66371;SDS011;53168;51.146;17.120;2024-02-26T07:27:26;27.16;;;26.34;;
66371;SDS011;53168;51.146;17.120;2024-02-26T07:29:59;27.23;;;26.52;;
66371;SDS011;53168;51.146;17.120;2024-02-26T07:32:37;28.81;;;28.16;;
66371;SDS011;53168;51.146;17.120;2024-02-26T07:35:13;27.82;;;27.03;;
66371;SDS011;53168;51.146;17.120;2024-02-26T07:37:46;27.11;;;26.64;;
66371;SDS011;53168;51.146;17.120;2024-02-26T07:40:19;25.62;;;25.01;;
66371;SDS011;53168;51.146;17.120;2024-02-26T07:42:50;26.86;;;26.15;;
66371;SDS011;53168;51.146;17.120;2024-02-26T07:45:22;25.85;;;25.20;;
66371;SDS011;53168;51.146;17.120;2024-02-26T07:47:53;24.59;;;24.16;;
66371;SDS011;53168;51.146;17.120;2024-02-26T07:50:24;22.71;;;22.31;;
66371;SDS011;53168;51.146;17.120;2024-02-26T07:52:54;23.03;;;22.67;;
66371;SDS011;53168;51.146;17.120;2024-02-26T07:55:26;21.73;;;21.28;;
66371;SDS011;53168;51.146;17.120;2024-02-26T07:57:57;20.09;;;19.85;;
66371;SDS011;53168;51.146;17.120;2024-02-26T08:00:28;16.46;;;16.31;;
66371;SDS011;53168;51.146;17.120;2024-02-26T08:02:59;18.65;;;18.52;;
66371;SDS011;53168;51.146;17.120;2024-02-26T08:05:31;20.07;;;19.74;;
66371;SDS011;53168;51.146;17.120;2024-02-26T08:08:01;18.45;;;18.15;;
66371;SDS011;53168;51.146;17.120;2024-02-26T08:10:34;20.47;;;20.06;;
66371;SDS011;53168;51.146;17.120;2024-02-26T08:13:05;19.86;;;19.41;;
66371;SDS011;53168;51.146;17.120;2024-02-26T08:15:38;20.09;;;19.62;;
66371;SDS011;53168;51.146;17.120;2024-02-26T08:18:12;21.01;;;20.63;;
66371;SDS011;53168;51.146;17.120;2024-02-26T08:20:44;20.56;;;20.15;;
66371;SDS011;53168;51.146;17.120;2024-02-26T08:23:17;18.78;;;18.43;;
66371;SDS011;53168;51.146;17.120;2024-02-26T08:25:48;16.40;;;16.21;;
66371;SDS011;53168;51.146;17.120;2024-02-26T08:28:20;17.73;;;17.47;;
66371;SDS011;53168;51.146;17.120;2024-02-26T08:30:53;17.62;;;17.32;;
66371;SDS011;53168;51.146;17.120;2024-02-26T08:33:25;16.74;;;16.32;;
66371;SDS011;53168;51.146;17.120;2024-02-26T08:35:57;17.10;;;16.85;;
66371;SDS011;53168;51.146;17.120;2024-02-26T08:38:32;16.87;;;16.64;;
66371;SDS011;53168;51.146;17.120;2024-02-26T08:41:04;14.67;;;14.50;;
66371;SDS011;53168;51.146;17.120;2024-02-26T08:43:35;16.34;;;16.22;;
66371;SDS011;53168;51.146;17.120;2024-02-26T08:46:09;15.80;;;15.67;;
66371;SDS011;53168;51.146;17.120;2024-02-26T08:48:42;15.65;;;15.50;;
66371;SDS011;53168;51.146;17.120;2024-02-26T08:51:14;14.38;;;14.32;;
66371;SDS011;53168;51.146;17.120;2024-02-26T08:53:45;15.04;;;14.96;;
66371;SDS011;53168;51.146;17.120;2024-02-26T08:56:18;12.56;;;12.44;;
66371;SDS011;53168;51.146;17.120;2024-02-26T08:58:50;12.93;;;12.72;;
66371;SDS011;53168;51.146;17.120;2024-02-26T09:01:24;9.76;;;9.70;;
66371;SDS011;53168;51.146;17.120;2024-02-26T09:03:56;10.37;;;10.30;;
66371;SDS011;53168;51.146;17.120;2024-02-26T09:06:27;11.03;;;10.95;;
66371;SDS011;53168;51.146;17.120;2024-02-26T09:08:59;11.42;;;11.31;;
66371;SDS011;53168;51.146;17.120;2024-02-26T09:11:32;8.52;;;8.45;;
66371;SDS011;53168;51.146;17.120;2024-02-26T09:14:04;9.68;;;9.57;;
66371;SDS011;53168;51.146;17.120;2024-02-26T09:16:35;8.80;;;8.75;;
66371;SDS011;53168;51.146;17.120;2024-02-26T09:19:07;7.89;;;7.80;;
66371;SDS011;53168;51.146;17.120;2024-02-26T09:21:42;7.37;;;7.29;;
66371;SDS011;53168;51.146;17.120;2024-02-26T09:24:14;7.28;;;7.27;;
66371;SDS011;53168;51.146;17.120;2024-02-26T09:26:46;7.14;;;7.14;;
66371;SDS011;53168;51.146;17.120;2024-02-26T09:29:28;7.39;;;7.36;;
66371;SDS011;53168;51.146;17.120;2024-02-26T09:32:07;7.10;;;7.08;;
66371;SDS011;53168;51.146;17.120;2024-02-26T09:34:40;7.08;;;7.00;;
66371;SDS011;53168;51.146;17.120;2024-02-26T09:37:12;6.84;;;6.79;;
66371;SDS011;53168;51.146;17.120;2024-02-26T09:39:50;6.83;;;6.83;;
66371;SDS011;53168;51.146;17.120;2024-02-26T09:42:21;6.55;;;6.51;;
66371;SDS011;53168;51.146;17.120;2024-02-26T09:45:00;6.16;;;6.10;;
66371;SDS011;53168;51.146;17.120;2024-02-26T09:47:37;5.96;;;5.92;;
66371;SDS011;53168;51.146;17.120;2024-02-26T09:50:11;5.74;;;5.74;;
66371;SDS011;53168;51.146;17.120;2024-02-26T09:52:50;5.53;;;5.52;;
66371;SDS011;53168;51.146;17.120;2024-02-26T09:55:27;5.79;;;5.79;;
66371;SDS011;53168;51.146;17.120;2024-02-26T09:57:58;5.76;;;5.76;;
66371;SDS011;53168;51.146;17.120;2024-02-26T10:00:37;5.35;;;5.35;;
66371;SDS011;53168;51.146;17.120;2024-02-26T10:03:13;5.68;;;5.68;;
66371;SDS011;53168;51.146;17.120;2024-02-26T10:05:47;5.43;;;5.43;;
66371;SDS011;53168;51.146;17.120;2024-02-26T10:08:24;5.05;;;5.05;;
66371;SDS011;53168;51.146;17.120;2024-02-26T10:10:56;4.78;;;4.78;;
66371;SDS011;53168;51.146;17.120;2024-02-26T10:13:30;4.69;;;4.69;;
66371;SDS011;53168;51.146;17.120;2024-02-26T10:16:08;4.44;;;4.43;;
66371;SDS011;53168;51.146;17.120;2024-02-26T10:18:46;4.40;;;4.38;;
66371;SDS011;53168;51.146;17.120;2024-02-26T10:21:27;4.63;;;4.62;;
66371;SDS011;53168;51.146;17.120;2024-02-26T10:23:59;4.65;;;4.65;;
66371;SDS011;53168;51.146;17.120;2024-02-26T10:26:31;4.44;;;4.43;;
66371;SDS011;53168;51.146;17.120;2024-02-26T10:29:03;5.00;;;4.99;;
66371;SDS011;53168;51.146;17.120;2024-02-26T10:31:37;4.40;;;4.39;;
66371;SDS011;53168;51.146;17.120;2024-02-26T10:34:15;4.65;;;4.63;;
66371;SDS011;53168;51.146;17.120;2024-02-26T10:36:48;4.29;;;4.28;;
66371;SDS011;53168;51.146;17.120;2024-02-26T10:39:22;4.21;;;4.18;;
66371;SDS011;53168;51.146;17.120;2024-02-26T10:41:55;4.65;;;4.64;;
66371;SDS011;53168;51.146;17.120;2024-02-26T10:47:41;5.28;;;5.26;;
66371;SDS011;53168;51.146;17.120;2024-02-26T10:50:13;5.26;;;5.24;;
66371;SDS011;53168;51.146;17.120;2024-02-26T10:52:47;5.56;;;5.56;;
66371;SDS011;53168;51.146;17.120;2024-02-26T10:55:19;5.45;;;5.45;;
66371;SDS011;53168;51.146;17.120;2024-02-26T10:57:53;4.92;;;4.92;;
66371;SDS011;53168;51.146;17.120;2024-02-26T11:00:25;5.50;;;5.49;;
66371;SDS011;53168;51.146;17.120;2024-02-26T11:02:57;5.80;;;5.79;;
66371;SDS011;53168;51.146;17.120;2024-02-26T11:05:31;6.37;;;6.35;;
66371;SDS011;53168;51.146;17.120;2024-02-26T11:08:04;5.61;;;5.60;;
66371;SDS011;53168;51.146;17.120;2024-02-26T11:10:36;5.88;;;5.86;;
66371;SDS011;53168;51.146;17.120;2024-02-26T11:13:09;5.78;;;5.78;;
66371;SDS011;53168;51.146;17.120;2024-02-26T11:15:46;5.78;;;5.77;;
66371;SDS011;53168;51.146;17.120;2024-02-26T11:18:18;5.26;;;5.25;;
66371;SDS011;53168;51.146;17.120;2024-02-26T11:20:52;5.15;;;5.15;;
66371;SDS011;53168;51.146;17.120;2024-02-26T11:23:25;5.44;;;5.43;;
66371;SDS011;53168;51.146;17.120;2024-02-26T11:26:15;5.49;;;5.48;;
66371;SDS011;53168;51.146;17.120;2024-02-26T11:28:51;5.20;;;5.20;;
66371;SDS011;53168;51.146;17.120;2024-02-26T11:31:25;4.96;;;4.96;;
66371;SDS011;53168;51.146;17.120;2024-02-26T11:34:00;5.04;;;5.04;;
66371;SDS011;53168;51.146;17.120;2024-02-26T11:36:33;5.15;;;5.12;;
66371;SDS011;53168;51.146;17.120;2024-02-26T11:39:09;4.55;;;4.54;;
66371;SDS011;53168;51.146;17.120;2024-02-26T11:41:45;3.99;;;3.99;;
66371;SDS011;53168;51.146;17.120;2024-02-26T11:44:16;4.40;;;4.40;;
66371;SDS011;53168;51.146;17.120;2024-02-26T11:47:02;4.09;;;4.09;;
66371;SDS011;53168;51.146;17.120;2024-02-26T11:49:41;4.00;;;4.00;;
66371;SDS011;53168;51.146;17.120;2024-02-26T11:52:12;3.64;;;3.64;;
66371;SDS011;53168;51.146;17.120;2024-02-26T11:54:46;3.57;;;3.57;;
66371;SDS011;53168;51.146;17.120;2024-02-26T11:57:26;3.43;;;3.43;;
66371;SDS011;53168;51.146;17.120;2024-02-26T12:00:11;3.41;;;3.41;;
66371;SDS011;53168;51.146;17.120;2024-02-26T12:02:46;3.78;;;3.77;;
66371;SDS011;53168;51.146;17.120;2024-02-26T12:05:26;3.45;;;3.45;;
66371;SDS011;53168;51.146;17.120;2024-02-26T12:08:05;3.35;;;3.35;;
66371;SDS011;53168;51.146;17.120;2024-02-26T12:10:38;3.22;;;3.22;;
66371;SDS011;53168;51.146;17.120;2024-02-26T12:13:12;3.32;;;3.32;;
66371;SDS011;53168;51.146;17.120;2024-02-26T12:15:55;3.28;;;3.27;;
66371;SDS011;53168;51.146;17.120;2024-02-26T12:18:28;3.20;;;3.20;;
66371;SDS011;53168;51.146;17.120;2024-02-26T12:21:00;2.84;;;2.84;;
66371;SDS011;53168;51.146;17.120;2024-02-26T12:23:33;2.82;;;2.82;;
66371;SDS011;53168;51.146;17.120;2024-02-26T12:26:04;3.03;;;3.03;;
66371;SDS011;53168;51.146;17.120;2024-02-26T12:28:38;2.69;;;2.69;;
66371;SDS011;53168;51.146;17.120;2024-02-26T12:31:53;3.47;;;3.29;;
66371;SDS011;53168;51.146;17.120;2024-02-26T12:34:28;2.94;;;2.91;;
66371;SDS011;53168;51.146;17.120;2024-02-26T12:37:04;2.60;;;2.60;;
66371;SDS011;53168;51.146;17.120;2024-02-26T12:39:40;2.77;;;2.77;;
66371;SDS011;53168;51.146;17.120;2024-02-26T12:42:17;2.84;;;2.84;;
66371;SDS011;53168;51.146;17.120;2024-02-26T12:44:53;2.96;;;2.96;;
66371;SDS011;53168;51.146;17.120;2024-02-26T12:47:31;2.71;;;2.70;;
66371;SDS011;53168;51.146;17.120;2024-02-26T12:50:10;2.73;;;2.73;;
66371;SDS011;53168;51.146;17.120;2024-02-26T12:52:46;2.59;;;2.58;;
66371;SDS011;53168;51.146;17.120;2024-02-26T12:55:22;2.95;;;2.93;;
66371;SDS011;53168;51.146;17.120;2024-02-26T12:58:00;2.89;;;2.89;;
66371;SDS011;53168;51.146;17.120;2024-02-26T13:00:35;2.73;;;2.72;;
66371;SDS011;53168;51.146;17.120;2024-02-26T13:03:13;2.97;;;2.95;;
66371;SDS011;53168;51.146;17.120;2024-02-26T13:05:58;3.16;;;3.15;;
66371;SDS011;53168;51.146;17.120;2024-02-26T13:08:43;3.10;;;3.10;;
66371;SDS011;53168;51.146;17.120;2024-02-26T13:11:32;2.93;;;2.93;;
66371;SDS011;53168;51.146;17.120;2024-02-26T13:14:21;2.94;;;2.94;;
66371;SDS011;53168;51.146;17.120;2024-02-26T13:17:04;3.00;;;3.00;;
66371;SDS011;53168;51.146;17.120;2024-02-26T13:19:53;3.16;;;3.16;;
66371;SDS011;53168;51.146;17.120;2024-02-26T13:22:40;3.57;;;3.57;;
66371;SDS011;53168;51.146;17.120;2024-02-26T13:25:21;3.44;;;3.44;;
66371;SDS011;53168;51.146;17.120;2024-02-26T13:28:05;3.14;;;3.12;;
66371;SDS011;53168;51.146;17.120;2024-02-26T13:30:51;3.17;;;3.15;;
66371;SDS011;53168;51.146;17.120;2024-02-26T13:39:22;3.11;;;3.11;;
66371;SDS011;53168;51.146;17.120;2024-02-26T13:42:00;3.42;;;3.42;;
66371;SDS011;53168;51.146;17.120;2024-02-26T13:44:36;3.42;;;3.42;;
66371;SDS011;53168;51.146;17.120;2024-02-26T13:47:12;3.10;;;3.10;;
66371;SDS011;53168;51.146;17.120;2024-02-26T13:49:48;3.10;;;3.10;;
66371;SDS011;53168;51.146;17.120;2024-02-26T13:52:24;3.21;;;3.21;;
66371;SDS011;53168;51.146;17.120;2024-02-26T13:55:05;2.67;;;2.67;;
66371;SDS011;53168;51.146;17.120;2024-02-26T13:57:41;3.11;;;3.11;;
66371;SDS011;53168;51.146;17.120;2024-02-26T14:00:22;3.19;;;3.19;;
66371;SDS011;53168;51.146;17.120;2024-02-26T14:02:59;3.00;;;2.99;;
66371;SDS011;53168;51.146;17.120;2024-02-26T14:05:37;3.23;;;3.23;;
66371;SDS011;53168;51.146;17.120;2024-02-26T14:08:16;3.12;;;3.12;;
66371;SDS011;53168;51.146;17.120;2024-02-26T14:10:52;2.96;;;2.96;;
66371;SDS011;53168;51.146;17.120;2024-02-26T14:13:28;3.15;;;3.14;;
66371;SDS011;53168;51.146;17.120;2024-02-26T14:16:08;3.41;;;3.41;;
66371;SDS011;53168;51.146;17.120;2024-02-26T14:18:44;3.36;;;3.36;;
66371;SDS011;53168;51.146;17.120;2024-02-26T14:21:20;3.78;;;3.78;;
66371;SDS011;53168;51.146;17.120;2024-02-26T14:23:55;3.90;;;3.90;;
66371;SDS011;53168;51.146;17.120;2024-02-26T14:26:30;3.53;;;3.53;;
66371;SDS011;53168;51.146;17.120;2024-02-26T14:29:05;3.34;;;3.33;;
66371;SDS011;53168;51.146;17.120;2024-02-26T14:31:40;4.07;;;4.07;;
66371;SDS011;53168;51.146;17.120;2024-02-26T14:34:16;3.63;;;3.63;;
66371;SDS011;53168;51.146;17.120;2024-02-26T14:36:51;3.96;;;3.96;;
66371;SDS011;53168;51.146;17.120;2024-02-26T14:39:26;4.49;;;4.49;;
66371;SDS011;53168;51.146;17.120;2024-02-26T14:42:01;4.83;;;4.83;;
66371;SDS011;53168;51.146;17.120;2024-02-26T14:44:37;6.05;;;6.05;;
66371;SDS011;53168;51.146;17.120;2024-02-26T14:47:12;5.70;;;5.69;;
66371;SDS011;53168;51.146;17.120;2024-02-26T14:49:46;5.39;;;5.39;;
66371;SDS011;53168;51.146;17.120;2024-02-26T14:52:21;5.19;;;5.19;;
66371;SDS011;53168;51.146;17.120;2024-02-26T14:54:56;6.79;;;6.70;;
66371;SDS011;53168;51.146;17.120;2024-02-26T14:57:32;6.04;;;5.96;;
66371;SDS011;53168;51.146;17.120;2024-02-26T15:00:07;5.41;;;5.41;;
66371;SDS011;53168;51.146;17.120;2024-02-26T15:02:45;5.21;;;5.21;;
66371;SDS011;53168;51.146;17.120;2024-02-26T15:05:21;5.07;;;5.06;;
66371;SDS011;53168;51.146;17.120;2024-02-26T15:07:58;5.15;;;5.14;;
66371;SDS011;53168;51.146;17.120;2024-02-26T15:10:33;5.20;;;5.20;;
66371;SDS011;53168;51.146;17.120;2024-02-26T15:13:08;5.31;;;5.30;;
66371;SDS011;53168;51.146;17.120;2024-02-26T15:15:43;5.30;;;5.29;;
66371;SDS011;53168;51.146;17.120;2024-02-26T15:18:54;5.13;;;4.97;;
66371;SDS011;53168;51.146;17.120;2024-02-26T15:21:34;5.35;;;5.26;;
66371;SDS011;53168;51.146;17.120;2024-02-26T15:24:18;5.40;;;5.34;;
66371;SDS011;53168;51.146;17.120;2024-02-26T15:26:54;5.23;;;5.22;;
66371;SDS011;53168;51.146;17.120;2024-02-26T15:29:29;5.18;;;5.17;;
66371;SDS011;53168;51.146;17.120;2024-02-26T15:32:06;5.27;;;5.26;;
66371;SDS011;53168;51.146;17.120;2024-02-26T15:34:41;5.28;;;5.28;;
66371;SDS011;53168;51.146;17.120;2024-02-26T15:37:17;5.24;;;5.22;;
66371;SDS011;53168;51.146;17.120;2024-02-26T15:39:52;5.56;;;5.55;;
66371;SDS011;53168;51.146;17.120;2024-02-26T15:42:26;5.90;;;5.90;;
66371;SDS011;53168;51.146;17.120;2024-02-26T15:45:02;5.72;;;5.71;;
66371;SDS011;53168;51.146;17.120;2024-02-26T15:47:42;6.59;;;6.59;;
66371;SDS011;53168;51.146;17.120;2024-02-26T15:50:19;6.80;;;6.78;;
66371;SDS011;53168;51.146;17.120;2024-02-26T15:52:54;7.46;;;7.40;;